Gray Court, South Carolina
Current Conditions -  °F | °C
As of 5:35 PM on Monday 26 Jan 2015 (Local Time) from KLUX Reporting Station
Overcast Overcast  
Wind Chill: 50°   Ceiling: 5000
Heat Index: 50°   Visibility: 10mi
Dew Point: 36°   Wind: 9mph
Humidity: 58%   Direction: 310°NW
Pressure: 29.71"   Gusts: 20mph
Location:  34.61°N, 82.11°W
Report Text: KLUX 262235Z AUTO 31008G17KT 10SM OVC050 10/02 A2971 RMK AO2
Loading
Personal Weather Stations






























Interactive Weather Map New forecast layout! Learn more

10-Day Weather Forecast

Advertisements
Track Severe Weather on mobile